Date,TemperatureHighF,TemperatureAvgF,TemperatureLowF,DewpointHighF,DewpointAvgF,DewpointLowF,HumidityHigh,HumidityAvg,HumidityLow,PressureMaxIn,PressureMinIn,WindSpeedMaxMPH,WindSpeedAvgMPH,GustSpeedMaxMPH,PrecipitationSumIn
2013-5-1,57,49,43,49,45,42,97,88,68,30.46,30.34,7,3,37,0.00
2013-5-2,68,52,43,51,46,41,97,81,44,30.43,30.36,10,4,37,0.00
2013-5-3,50,46,41,45,42,40,97,89,80,30.44,30.33,14,6,37,0.00
2013-5-4,50,46,43,43,41,39,96,83,69,30.33,30.27,14,8,37,0.00
2013-5-5,53,47,44,45,43,41,95,86,72,30.27,30.24,11,6,37,0.00
2013-5-6,55,47,41,49,44,41,98,92,77,30.27,30.17,7,3,37,0.00
2013-5-7,67,55,45,60,53,45,99,92,76,30.18,30.12,8,3,37,0.00
2013-5-8,66,58,54,61,56,53,99,94,81,30.20,30.04,14,7,37,0.19
2013-5-9,64,57,52,61,55,51,99,95,85,30.04,29.88,9,4,37,0.21
2013-5-10,67,58,52,60,56,52,99,91,74,29.96,29.87,9,5,37,0.00
2013-5-11,62,57,52,59,56,52,99,96,87,29.94,29.74,17,8,37,0.41
2013-5-12,59,57,54,59,54,39,99,93,56,29.78,29.59,12,7,37,0.36
2013-5-13,55,51,44,42,38,33,72,60,46,29.97,29.78,15,8,37,0.00
2013-5-14,55,50,48,43,38,30,75,63,39,30.01,29.93,10,6,37,0.00
2013-5-15,58,52,44,56,46,35,95,79,61,30.05,29.68,22,9,37,0.05
2013-5-16,68,61,53,55,53,49,97,77,54,29.75,29.64,13,8,37,0.00
2013-5-17,63,57,50,50,46,42,87,67,51,30.19,29.74,14,6,37,0.00
2013-5-18,63,56,47,55,51,45,94,82,66,30.29,30.19,10,6,37,0.00
2013-5-19,64,59,53,55,52,50,94,81,63,30.34,30.24,11,6,37,0.04
2013-5-20,68,60,54,63,58,53,99,94,84,30.24,29.92,13,8,37,0.22
2013-5-21,64,59,55,61,58,54,99,96,90,29.96,29.85,9,4,37,0.00
2013-5-22,70,57,52,63,56,51,99,96,78,29.94,29.88,11,6,37,0.00
2013-5-23,65,62,59,63,61,59,100,97,92,29.95,29.88,13,10,37,0.17
2013-5-24,63,61,56,63,61,56,100,100,98,29.87,29.68,30,10,37,1.48
2013-5-25,56,51,44,56,50,43,100,96,82,29.70,29.64,12,7,37,0.10
2013-5-26,58,48,41,44,42,38,97,79,57,30.06,29.69,12,7,37,0.00
2013-5-27,68,57,46,52,44,36,83,65,32,30.15,30.05,12,7,37,0.00
2013-5-28,64,58,49,56,52,46,96,80,58,30.23,30.15,10,4,37,0.00
2013-5-29,62,57,54,60,56,54,99,97,91,30.22,30.01,19,11,37,0.62
2013-5-30,76,65,60,68,62,59,99,89,75,30.07,30.01,10,6,37,0.11
2013-5-31,79,69,61,67,64,60,97,83,65,30.08,29.96,11,6,37,0.00